sensor_id;sensor_type;location;lat;lon;timestamp;temperature;humidity
42965;DHT22;28604;51.204;22.552;2022-09-17T00:00:01;10.50;90.60
42965;DHT22;28604;51.204;22.552;2022-09-17T00:02:54;10.50;90.70
42965;DHT22;28604;51.204;22.552;2022-09-17T00:05:21;10.50;90.40
42965;DHT22;28604;51.204;22.552;2022-09-17T00:07:50;10.50;90.50
42965;DHT22;28604;51.204;22.552;2022-09-17T00:10:18;10.50;90.60
42965;DHT22;28604;51.204;22.552;2022-09-17T00:12:45;10.50;90.50
42965;DHT22;28604;51.204;22.552;2022-09-17T00:15:12;10.40;90.40
42965;DHT22;28604;51.204;22.552;2022-09-17T00:17:38;10.50;90.40
42965;DHT22;28604;51.204;22.552;2022-09-17T00:20:05;10.40;90.40
42965;DHT22;28604;51.204;22.552;2022-09-17T00:22:36;10.40;91.20
42965;DHT22;28604;51.204;22.552;2022-09-17T00:25:04;10.40;90.80
42965;DHT22;28604;51.204;22.552;2022-09-17T00:27:30;10.40;91.00
42965;DHT22;28604;51.204;22.552;2022-09-17T00:29:58;10.40;91.00
42965;DHT22;28604;51.204;22.552;2022-09-17T00:32:24;10.40;90.70
42965;DHT22;28604;51.204;22.552;2022-09-17T00:34:51;10.40;90.90
42965;DHT22;28604;51.204;22.552;2022-09-17T00:37:18;10.40;90.90
42965;DHT22;28604;51.204;22.552;2022-09-17T00:39:44;10.40;91.10
42965;DHT22;28604;51.204;22.552;2022-09-17T00:42:14;10.50;90.80
42965;DHT22;28604;51.204;22.552;2022-09-17T00:44:52;10.50;90.80
42965;DHT22;28604;51.204;22.552;2022-09-17T00:48:03;10.40;90.90
42965;DHT22;28604;51.204;22.552;2022-09-17T00:50:24;10.40;90.90
42965;DHT22;28604;51.204;22.552;2022-09-17T00:52:55;10.40;91.50
42965;DHT22;28604;51.204;22.552;2022-09-17T00:55:46;10.40;90.80
42965;DHT22;28604;51.204;22.552;2022-09-17T00:58:12;10.40;90.90
42965;DHT22;28604;51.204;22.552;2022-09-17T01:00:40;10.40;90.80
42965;DHT22;28604;51.204;22.552;2022-09-17T01:03:06;10.40;90.40
42965;DHT22;28604;51.204;22.552;2022-09-17T01:05:42;10.40;90.90
42965;DHT22;28604;51.204;22.552;2022-09-17T01:10:53;10.40;90.90
42965;DHT22;28604;51.204;22.552;2022-09-17T01:13:33;10.40;90.80
42965;DHT22;28604;51.204;22.552;2022-09-17T01:16:30;10.30;91.00
42965;DHT22;28604;51.204;22.552;2022-09-17T01:32:36;10.20;90.40
42965;DHT22;28604;51.204;22.552;2022-09-17T01:35:13;10.10;91.30
42965;DHT22;28604;51.204;22.552;2022-09-17T01:40:52;10.20;90.70
42965;DHT22;28604;51.204;22.552;2022-09-17T01:43:25;10.10;90.20
42965;DHT22;28604;51.204;22.552;2022-09-17T01:45:57;10.10;90.90
42965;DHT22;28604;51.204;22.552;2022-09-17T01:48:29;10.10;90.70
42965;DHT22;28604;51.204;22.552;2022-09-17T01:51:04;10.10;90.70
42965;DHT22;28604;51.204;22.552;2022-09-17T01:53:54;10.10;90.60
42965;DHT22;28604;51.204;22.552;2022-09-17T01:56:29;10.10;90.60
42965;DHT22;28604;51.204;22.552;2022-09-17T01:59:23;10.00;90.40
42965;DHT22;28604;51.204;22.552;2022-09-17T02:01:53;10.00;90.90
42965;DHT22;28604;51.204;22.552;2022-09-17T02:04:27;10.00;90.60
42965;DHT22;28604;51.204;22.552;2022-09-17T02:07:01;10.00;90.60
42965;DHT22;28604;51.204;22.552;2022-09-17T02:09:41;10.00;90.70
42965;DHT22;28604;51.204;22.552;2022-09-17T02:12:13;10.00;90.20
42965;DHT22;28604;51.204;22.552;2022-09-17T02:14:51;9.90;90.40
42965;DHT22;28604;51.204;22.552;2022-09-17T02:17:28;9.90;91.20
42965;DHT22;28604;51.204;22.552;2022-09-17T02:19:57;10.00;91.30
42965;DHT22;28604;51.204;22.552;2022-09-17T02:22:37;10.00;91.40
42965;DHT22;28604;51.204;22.552;2022-09-17T02:25:19;9.90;90.90
42965;DHT22;28604;51.204;22.552;2022-09-17T02:28:13;9.80;90.80
42965;DHT22;28604;51.204;22.552;2022-09-17T02:30:41;9.80;91.40
42965;DHT22;28604;51.204;22.552;2022-09-17T02:33:10;9.80;91.10
42965;DHT22;28604;51.204;22.552;2022-09-17T02:35:37;9.80;90.90
42965;DHT22;28604;51.204;22.552;2022-09-17T02:38:04;9.80;91.70
42965;DHT22;28604;51.204;22.552;2022-09-17T02:40:44;9.80;92.00
42965;DHT22;28604;51.204;22.552;2022-09-17T02:46:18;9.80;91.20
42965;DHT22;28604;51.204;22.552;2022-09-17T02:55:00;9.80;91.10
42965;DHT22;28604;51.204;22.552;2022-09-17T03:00:08;9.90;91.00
42965;DHT22;28604;51.204;22.552;2022-09-17T03:02:44;9.80;91.40
42965;DHT22;28604;51.204;22.552;2022-09-17T03:05:13;9.80;91.00
42965;DHT22;28604;51.204;22.552;2022-09-17T03:07:41;9.80;91.50
42965;DHT22;28604;51.204;22.552;2022-09-17T03:10:08;9.70;91.00
42965;DHT22;28604;51.204;22.552;2022-09-17T03:12:34;9.80;91.10
42965;DHT22;28604;51.204;22.552;2022-09-17T03:15:01;9.70;91.30
42965;DHT22;28604;51.204;22.552;2022-09-17T03:17:28;9.70;91.70
42965;DHT22;28604;51.204;22.552;2022-09-17T03:19:54;9.70;91.40
42965;DHT22;28604;51.204;22.552;2022-09-17T03:22:20;9.70;91.30
42965;DHT22;28604;51.204;22.552;2022-09-17T03:24:46;9.70;92.30
42965;DHT22;28604;51.204;22.552;2022-09-17T03:27:13;9.70;92.00
42965;DHT22;28604;51.204;22.552;2022-09-17T03:29:39;9.60;91.90
42965;DHT22;28604;51.204;22.552;2022-09-17T03:32:05;9.60;91.60
42965;DHT22;28604;51.204;22.552;2022-09-17T03:34:31;9.70;91.60
42965;DHT22;28604;51.204;22.552;2022-09-17T03:36:57;9.70;92.50
42965;DHT22;28604;51.204;22.552;2022-09-17T03:39:24;9.70;91.80
42965;DHT22;28604;51.204;22.552;2022-09-17T03:41:50;9.70;92.20
42965;DHT22;28604;51.204;22.552;2022-09-17T03:44:16;9.60;91.60
42965;DHT22;28604;51.204;22.552;2022-09-17T03:46:44;9.70;91.50
42965;DHT22;28604;51.204;22.552;2022-09-17T03:49:10;9.60;91.90
42965;DHT22;28604;51.204;22.552;2022-09-17T03:51:36;9.60;91.80
42965;DHT22;28604;51.204;22.552;2022-09-17T03:54:02;9.60;92.00
42965;DHT22;28604;51.204;22.552;2022-09-17T03:56:29;9.60;91.50
42965;DHT22;28604;51.204;22.552;2022-09-17T03:58:59;9.50;92.00
42965;DHT22;28604;51.204;22.552;2022-09-17T04:01:26;9.50;91.70
42965;DHT22;28604;51.204;22.552;2022-09-17T04:03:53;9.50;91.40
42965;DHT22;28604;51.204;22.552;2022-09-17T04:06:19;9.50;92.10
42965;DHT22;28604;51.204;22.552;2022-09-17T04:08:45;9.50;91.80
42965;DHT22;28604;51.204;22.552;2022-09-17T04:11:11;9.60;91.60
42965;DHT22;28604;51.204;22.552;2022-09-17T04:13:38;9.60;91.10
42965;DHT22;28604;51.204;22.552;2022-09-17T04:16:04;9.50;91.70
42965;DHT22;28604;51.204;22.552;2022-09-17T04:18:30;9.50;92.40
42965;DHT22;28604;51.204;22.552;2022-09-17T04:20:56;9.50;91.80
42965;DHT22;28604;51.204;22.552;2022-09-17T04:23:22;9.50;92.00
42965;DHT22;28604;51.204;22.552;2022-09-17T04:25:49;9.40;92.20
42965;DHT22;28604;51.204;22.552;2022-09-17T04:28:15;9.40;92.00
42965;DHT22;28604;51.204;22.552;2022-09-17T04:30:41;9.40;92.20
42965;DHT22;28604;51.204;22.552;2022-09-17T04:33:08;9.40;92.30
42965;DHT22;28604;51.204;22.552;2022-09-17T04:35:34;9.50;91.70
42965;DHT22;28604;51.204;22.552;2022-09-17T04:38:01;9.40;92.40
42965;DHT22;28604;51.204;22.552;2022-09-17T04:40:27;9.40;92.20
42965;DHT22;28604;51.204;22.552;2022-09-17T04:42:55;9.40;91.90
42965;DHT22;28604;51.204;22.552;2022-09-17T04:45:22;9.50;92.00
42965;DHT22;28604;51.204;22.552;2022-09-17T04:47:48;9.50;92.30
42965;DHT22;28604;51.204;22.552;2022-09-17T04:50:18;9.50;92.30
42965;DHT22;28604;51.204;22.552;2022-09-17T04:52:44;9.50;92.10
42965;DHT22;28604;51.204;22.552;2022-09-17T04:55:11;9.50;91.70
42965;DHT22;28604;51.204;22.552;2022-09-17T04:57:38;9.50;91.80
42965;DHT22;28604;51.204;22.552;2022-09-17T05:00:05;9.50;91.90
42965;DHT22;28604;51.204;22.552;2022-09-17T05:02:34;9.50;91.70
42965;DHT22;28604;51.204;22.552;2022-09-17T05:05:00;9.50;91.80
42965;DHT22;28604;51.204;22.552;2022-09-17T05:07:26;9.50;92.10
42965;DHT22;28604;51.204;22.552;2022-09-17T05:09:53;9.50;91.90
42965;DHT22;28604;51.204;22.552;2022-09-17T05:12:19;9.50;91.90
42965;DHT22;28604;51.204;22.552;2022-09-17T05:14:45;9.60;92.10
42965;DHT22;28604;51.204;22.552;2022-09-17T05:17:11;9.60;92.40
42965;DHT22;28604;51.204;22.552;2022-09-17T05:19:37;9.70;92.10
42965;DHT22;28604;51.204;22.552;2022-09-17T05:22:03;9.70;91.70
42965;DHT22;28604;51.204;22.552;2022-09-17T05:24:29;9.70;91.70
42965;DHT22;28604;51.204;22.552;2022-09-17T05:26:55;9.80;92.20
42965;DHT22;28604;51.204;22.552;2022-09-17T05:29:21;9.90;92.10
42965;DHT22;28604;51.204;22.552;2022-09-17T05:31:47;9.90;92.20
42965;DHT22;28604;51.204;22.552;2022-09-17T05:34:13;10.00;92.00
42965;DHT22;28604;51.204;22.552;2022-09-17T05:36:39;10.10;92.30
42965;DHT22;28604;51.204;22.552;2022-09-17T05:39:06;10.20;92.30
42965;DHT22;28604;51.204;22.552;2022-09-17T05:41:33;10.30;92.40
42965;DHT22;28604;51.204;22.552;2022-09-17T05:43:59;10.50;92.10
42965;DHT22;28604;51.204;22.552;2022-09-17T05:46:25;10.80;91.90
42965;DHT22;28604;51.204;22.552;2022-09-17T05:48:54;11.20;91.70
42965;DHT22;28604;51.204;22.552;2022-09-17T05:51:21;11.80;91.10
42965;DHT22;28604;51.204;22.552;2022-09-17T05:53:47;12.30;90.60
42965;DHT22;28604;51.204;22.552;2022-09-17T05:56:13;12.90;90.30
42965;DHT22;28604;51.204;22.552;2022-09-17T05:58:40;13.40;89.30
42965;DHT22;28604;51.204;22.552;2022-09-17T06:01:06;13.80;86.50
42965;DHT22;28604;51.204;22.552;2022-09-17T06:03:32;14.20;85.60
42965;DHT22;28604;51.204;22.552;2022-09-17T06:05:59;14.50;84.90
42965;DHT22;28604;51.204;22.552;2022-09-17T06:08:27;14.90;84.70
42965;DHT22;28604;51.204;22.552;2022-09-17T06:10:53;15.20;83.20
42965;DHT22;28604;51.204;22.552;2022-09-17T06:13:20;15.50;82.80
42965;DHT22;28604;51.204;22.552;2022-09-17T06:15:51;15.80;82.30
42965;DHT22;28604;51.204;22.552;2022-09-17T06:18:18;16.10;81.40
42965;DHT22;28604;51.204;22.552;2022-09-17T06:20:57;16.30;81.10
42965;DHT22;28604;51.204;22.552;2022-09-17T06:23:24;16.50;79.40
42965;DHT22;28604;51.204;22.552;2022-09-17T06:25:58;16.60;80.50
42965;DHT22;28604;51.204;22.552;2022-09-17T06:28:26;16.80;78.70
42965;DHT22;28604;51.204;22.552;2022-09-17T06:30:52;16.90;79.80
42965;DHT22;28604;51.204;22.552;2022-09-17T06:33:21;17.00;77.50
42965;DHT22;28604;51.204;22.552;2022-09-17T06:35:48;16.90;78.40
42965;DHT22;28604;51.204;22.552;2022-09-17T06:38:14;17.20;77.80
42965;DHT22;28604;51.204;22.552;2022-09-17T06:40:40;17.20;77.50
42965;DHT22;28604;51.204;22.552;2022-09-17T06:43:06;17.30;76.70
42965;DHT22;28604;51.204;22.552;2022-09-17T06:45:32;17.20;75.20
42965;DHT22;28604;51.204;22.552;2022-09-17T06:48:02;17.40;75.70
42965;DHT22;28604;51.204;22.552;2022-09-17T06:50:29;17.40;74.40
42965;DHT22;28604;51.204;22.552;2022-09-17T06:52:56;17.30;75.30
42965;DHT22;28604;51.204;22.552;2022-09-17T06:55:22;17.60;76.30
42965;DHT22;28604;51.204;22.552;2022-09-17T06:57:48;17.50;72.90
42965;DHT22;28604;51.204;22.552;2022-09-17T07:00:14;17.60;73.30
42965;DHT22;28604;51.204;22.552;2022-09-17T07:02:40;17.60;74.10
42965;DHT22;28604;51.204;22.552;2022-09-17T07:05:07;17.70;73.30
42965;DHT22;28604;51.204;22.552;2022-09-17T07:07:33;17.70;73.30
42965;DHT22;28604;51.204;22.552;2022-09-17T07:10:01;18.10;74.20
42965;DHT22;28604;51.204;22.552;2022-09-17T07:12:27;18.30;71.80
42965;DHT22;28604;51.204;22.552;2022-09-17T07:14:53;18.30;71.40
42965;DHT22;28604;51.204;22.552;2022-09-17T07:17:19;18.50;71.50
42965;DHT22;28604;51.204;22.552;2022-09-17T07:19:46;18.50;70.60
42965;DHT22;28604;51.204;22.552;2022-09-17T07:22:12;18.60;72.50
42965;DHT22;28604;51.204;22.552;2022-09-17T07:24:38;18.70;70.40
42965;DHT22;28604;51.204;22.552;2022-09-17T07:27:04;18.80;69.20
42965;DHT22;28604;51.204;22.552;2022-09-17T07:29:31;18.90;70.40
42965;DHT22;28604;51.204;22.552;2022-09-17T07:31:57;19.10;70.40
42965;DHT22;28604;51.204;22.552;2022-09-17T07:34:24;19.10;69.30
42965;DHT22;28604;51.204;22.552;2022-09-17T07:36:52;19.50;70.10
42965;DHT22;28604;51.204;22.552;2022-09-17T07:39:18;19.80;71.40
42965;DHT22;28604;51.204;22.552;2022-09-17T07:41:45;20.20;69.60
42965;DHT22;28604;51.204;22.552;2022-09-17T07:44:11;20.60;66.70
42965;DHT22;28604;51.204;22.552;2022-09-17T07:46:37;20.60;67.10
42965;DHT22;28604;51.204;22.552;2022-09-17T07:49:03;20.70;64.60
42965;DHT22;28604;51.204;22.552;2022-09-17T07:51:29;20.70;65.80
42965;DHT22;28604;51.204;22.552;2022-09-17T07:53:58;21.20;66.80
42965;DHT22;28604;51.204;22.552;2022-09-17T07:56:25;21.50;66.70
42965;DHT22;28604;51.204;22.552;2022-09-17T07:58:52;21.70;65.20
42965;DHT22;28604;51.204;22.552;2022-09-17T08:01:19;21.80;63.20
42965;DHT22;28604;51.204;22.552;2022-09-17T08:03:50;21.80;62.00
42965;DHT22;28604;51.204;22.552;2022-09-17T08:06:19;21.60;62.20
42965;DHT22;28604;51.204;22.552;2022-09-17T08:08:46;21.50;62.30
42965;DHT22;28604;51.204;22.552;2022-09-17T08:11:14;21.30;63.50
42965;DHT22;28604;51.204;22.552;2022-09-17T08:13:41;21.30;64.20
42965;DHT22;28604;51.204;22.552;2022-09-17T08:16:10;21.00;61.90
42965;DHT22;28604;51.204;22.552;2022-09-17T08:18:38;20.60;63.10
42965;DHT22;28604;51.204;22.552;2022-09-17T08:21:06;20.60;63.50
42965;DHT22;28604;51.204;22.552;2022-09-17T08:23:37;20.40;63.70
42965;DHT22;28604;51.204;22.552;2022-09-17T08:26:04;20.20;63.60
42965;DHT22;28604;51.204;22.552;2022-09-17T08:28:34;20.00;65.50
42965;DHT22;28604;51.204;22.552;2022-09-17T08:31:05;19.80;65.00
42965;DHT22;28604;51.204;22.552;2022-09-17T08:33:36;19.90;65.50
42965;DHT22;28604;51.204;22.552;2022-09-17T08:36:04;19.80;64.60
42965;DHT22;28604;51.204;22.552;2022-09-17T08:38:32;19.70;65.80
42965;DHT22;28604;51.204;22.552;2022-09-17T08:46:49;19.50;66.10
42965;DHT22;28604;51.204;22.552;2022-09-17T08:49:44;19.70;65.90
42965;DHT22;28604;51.204;22.552;2022-09-17T08:52:29;19.90;65.80
42965;DHT22;28604;51.204;22.552;2022-09-17T08:58:01;20.60;63.20
42965;DHT22;28604;51.204;22.552;2022-09-17T09:00:23;20.70;63.10
42965;DHT22;28604;51.204;22.552;2022-09-17T09:03:20;21.00;64.40
42965;DHT22;28604;51.204;22.552;2022-09-17T09:05:51;21.40;62.40
42965;DHT22;28604;51.204;22.552;2022-09-17T09:10:50;21.80;61.00
42965;DHT22;28604;51.204;22.552;2022-09-17T09:13:19;22.10;59.20
42965;DHT22;28604;51.204;22.552;2022-09-17T09:15:55;22.30;59.60
42965;DHT22;28604;51.204;22.552;2022-09-17T09:18:26;22.20;58.40
42965;DHT22;28604;51.204;22.552;2022-09-17T09:24:01;21.80;57.20
42965;DHT22;28604;51.204;22.552;2022-09-17T09:29:21;21.90;58.30
42965;DHT22;28604;51.204;22.552;2022-09-17T09:32:20;21.80;58.20
42965;DHT22;28604;51.204;22.552;2022-09-17T09:34:50;21.80;59.30
42965;DHT22;28604;51.204;22.552;2022-09-17T09:39:46;21.70;58.80
42965;DHT22;28604;51.204;22.552;2022-09-17T09:42:26;21.80;59.70
42965;DHT22;28604;51.204;22.552;2022-09-17T09:44:59;21.90;59.70
42965;DHT22;28604;51.204;22.552;2022-09-17T10:00:54;21.20;60.20
42965;DHT22;28604;51.204;22.552;2022-09-17T10:03:22;21.20;58.30
42965;DHT22;28604;51.204;22.552;2022-09-17T10:06:03;21.20;59.00
42965;DHT22;28604;51.204;22.552;2022-09-17T10:08:33;20.80;60.20
42965;DHT22;28604;51.204;22.552;2022-09-17T10:13:36;21.00;60.20
42965;DHT22;28604;51.204;22.552;2022-09-17T10:16:28;20.90;59.10
42965;DHT22;28604;51.204;22.552;2022-09-17T10:21:35;20.60;59.60
42965;DHT22;28604;51.204;22.552;2022-09-17T10:24:08;20.60;60.40
42965;DHT22;28604;51.204;22.552;2022-09-17T10:26:36;20.60;60.90
42965;DHT22;28604;51.204;22.552;2022-09-17T10:29:05;20.40;59.90
42965;DHT22;28604;51.204;22.552;2022-09-17T10:31:56;20.40;60.30
42965;DHT22;28604;51.204;22.552;2022-09-17T10:36:52;20.30;58.80
42965;DHT22;28604;51.204;22.552;2022-09-17T10:39:34;20.20;58.70
42965;DHT22;28604;51.204;22.552;2022-09-17T10:42:04;20.10;58.50
42965;DHT22;28604;51.204;22.552;2022-09-17T10:44:33;19.90;59.10
42965;DHT22;28604;51.204;22.552;2022-09-17T10:47:12;19.80;59.70
42965;DHT22;28604;51.204;22.552;2022-09-17T10:53:14;19.60;60.10
42965;DHT22;28604;51.204;22.552;2022-09-17T10:58:09;19.40;61.00
42965;DHT22;28604;51.204;22.552;2022-09-17T11:17:34;19.40;63.30
42965;DHT22;28604;51.204;22.552;2022-09-17T11:23:17;19.50;62.60
42965;DHT22;28604;51.204;22.552;2022-09-17T11:25:58;19.50;63.10
42965;DHT22;28604;51.204;22.552;2022-09-17T11:28:36;19.60;63.90
42965;DHT22;28604;51.204;22.552;2022-09-17T11:34:12;19.50;62.40
42965;DHT22;28604;51.204;22.552;2022-09-17T11:36:53;19.60;63.10
42965;DHT22;28604;51.204;22.552;2022-09-17T11:42:16;19.70;61.70
42965;DHT22;28604;51.204;22.552;2022-09-17T11:44:52;19.80;60.70
42965;DHT22;28604;51.204;22.552;2022-09-17T11:47:34;19.60;61.20
42965;DHT22;28604;51.204;22.552;2022-09-17T11:52:44;19.60;60.70
42965;DHT22;28604;51.204;22.552;2022-09-17T11:57:58;19.60;61.00
42965;DHT22;28604;51.204;22.552;2022-09-17T12:00:27;19.60;60.80
42965;DHT22;28604;51.204;22.552;2022-09-17T12:03:15;19.50;61.10
42965;DHT22;28604;51.204;22.552;2022-09-17T12:05:47;19.40;60.20
42965;DHT22;28604;51.204;22.552;2022-09-17T12:08:23;19.40;60.70
42965;DHT22;28604;51.204;22.552;2022-09-17T12:13:49;19.30;61.70
42965;DHT22;28604;51.204;22.552;2022-09-17T12:16:22;19.30;61.00
42965;DHT22;28604;51.204;22.552;2022-09-17T12:21:46;19.20;60.70
42965;DHT22;28604;51.204;22.552;2022-09-17T12:52:12;17.80;63.70
42965;DHT22;28604;51.204;22.552;2022-09-17T13:00:27;17.20;66.10
42965;DHT22;28604;51.204;22.552;2022-09-17T13:03:06;17.10;65.10
42965;DHT22;28604;51.204;22.552;2022-09-17T13:06:03;17.00;66.00
42965;DHT22;28604;51.204;22.552;2022-09-17T13:20:24;16.60;68.30
42965;DHT22;28604;51.204;22.552;2022-09-17T13:22:55;16.40;68.50
42965;DHT22;28604;51.204;22.552;2022-09-17T13:25:23;16.30;68.40
42965;DHT22;28604;51.204;22.552;2022-09-17T13:27:50;16.20;68.70
42965;DHT22;28604;51.204;22.552;2022-09-17T13:30:59;16.20;69.10
42965;DHT22;28604;51.204;22.552;2022-09-17T13:39:00;16.00;71.00
42965;DHT22;28604;51.204;22.552;2022-09-17T13:41:28;15.90;71.70
42965;DHT22;28604;51.204;22.552;2022-09-17T13:43:55;15.90;71.50
42965;DHT22;28604;51.204;22.552;2022-09-17T13:46:26;15.80;72.10
42965;DHT22;28604;51.204;22.552;2022-09-17T13:49:31;15.80;72.10
42965;DHT22;28604;51.204;22.552;2022-09-17T13:51:51;15.70;72.20
42965;DHT22;28604;51.204;22.552;2022-09-17T13:54:18;15.70;72.20
42965;DHT22;28604;51.204;22.552;2022-09-17T13:57:01;15.70;72.20
42965;DHT22;28604;51.204;22.552;2022-09-17T13:59:28;15.70;72.60
42965;DHT22;28604;51.204;22.552;2022-09-17T14:02:02;15.60;73.40
42965;DHT22;28604;51.204;22.552;2022-09-17T14:09:58;15.70;73.30
42965;DHT22;28604;51.204;22.552;2022-09-17T14:17:57;15.60;73.60
42965;DHT22;28604;51.204;22.552;2022-09-17T14:20:24;15.50;74.00
42965;DHT22;28604;51.204;22.552;2022-09-17T14:23:01;15.60;73.80
42965;DHT22;28604;51.204;22.552;2022-09-17T14:25:52;15.60;73.50
42965;DHT22;28604;51.204;22.552;2022-09-17T14:28:51;15.60;73.70
42965;DHT22;28604;51.204;22.552;2022-09-17T14:31:30;15.50;73.90
42965;DHT22;28604;51.204;22.552;2022-09-17T14:33:56;15.60;74.10
42965;DHT22;28604;51.204;22.552;2022-09-17T14:36:23;15.60;73.60
42965;DHT22;28604;51.204;22.552;2022-09-17T14:38:55;15.60;73.90
42965;DHT22;28604;51.204;22.552;2022-09-17T14:41:23;15.50;74.10
42965;DHT22;28604;51.204;22.552;2022-09-17T14:44:12;15.60;73.70
42965;DHT22;28604;51.204;22.552;2022-09-17T14:49:27;15.60;73.80
42965;DHT22;28604;51.204;22.552;2022-09-17T14:51:55;15.70;73.70
42965;DHT22;28604;51.204;22.552;2022-09-17T14:54:27;15.60;73.70
42965;DHT22;28604;51.204;22.552;2022-09-17T15:05:00;15.60;73.40
42965;DHT22;28604;51.204;22.552;2022-09-17T15:07:28;15.60;73.90
42965;DHT22;28604;51.204;22.552;2022-09-17T15:10:04;15.70;73.30
42965;DHT22;28604;51.204;22.552;2022-09-17T15:12:30;15.60;73.40
42965;DHT22;28604;51.204;22.552;2022-09-17T15:14:57;15.50;73.20
42965;DHT22;28604;51.204;22.552;2022-09-17T15:17:23;15.50;72.60
42965;DHT22;28604;51.204;22.552;2022-09-17T15:19:52;15.60;73.20
42965;DHT22;28604;51.204;22.552;2022-09-17T15:22:31;15.50;72.70
42965;DHT22;28604;51.204;22.552;2022-09-17T15:25:13;15.50;72.90
42965;DHT22;28604;51.204;22.552;2022-09-17T15:27:43;15.50;73.10
42965;DHT22;28604;51.204;22.552;2022-09-17T15:30:21;15.40;73.30
42965;DHT22;28604;51.204;22.552;2022-09-17T15:35:19;15.30;73.40
42965;DHT22;28604;51.204;22.552;2022-09-17T15:37:53;15.30;73.70
42965;DHT22;28604;51.204;22.552;2022-09-17T15:43:23;15.20;74.00
42965;DHT22;28604;51.204;22.552;2022-09-17T15:45:53;15.20;74.60
42965;DHT22;28604;51.204;22.552;2022-09-17T15:50:57;15.10;74.90
42965;DHT22;28604;51.204;22.552;2022-09-17T15:53:28;15.00;75.20
42965;DHT22;28604;51.204;22.552;2022-09-17T16:06:34;14.70;76.10
42965;DHT22;28604;51.204;22.552;2022-09-17T16:09:00;14.80;76.30
42965;DHT22;28604;51.204;22.552;2022-09-17T16:11:29;14.70;76.30
42965;DHT22;28604;51.204;22.552;2022-09-17T16:13:58;14.70;76.70
42965;DHT22;28604;51.204;22.552;2022-09-17T16:16:32;14.60;76.80
42965;DHT22;28604;51.204;22.552;2022-09-17T16:18:58;14.50;76.80
42965;DHT22;28604;51.204;22.552;2022-09-17T16:21:24;14.50;77.30
42965;DHT22;28604;51.204;22.552;2022-09-17T16:23:50;14.50;76.60
42965;DHT22;28604;51.204;22.552;2022-09-17T16:26:21;14.50;76.40
42965;DHT22;28604;51.204;22.552;2022-09-17T16:28:51;14.50;76.40
42965;DHT22;28604;51.204;22.552;2022-09-17T16:31:18;14.50;76.30
42965;DHT22;28604;51.204;22.552;2022-09-17T16:33:45;14.40;76.30
42965;DHT22;28604;51.204;22.552;2022-09-17T16:36:11;14.40;76.00
42965;DHT22;28604;51.204;22.552;2022-09-17T16:38:37;14.30;76.20
42965;DHT22;28604;51.204;22.552;2022-09-17T16:41:05;14.30;76.80
42965;DHT22;28604;51.204;22.552;2022-09-17T16:43:31;14.30;77.60
42965;DHT22;28604;51.204;22.552;2022-09-17T16:46:00;14.20;77.60
42965;DHT22;28604;51.204;22.552;2022-09-17T16:48:26;14.10;77.30
42965;DHT22;28604;51.204;22.552;2022-09-17T16:50:52;14.10;77.20
42965;DHT22;28604;51.204;22.552;2022-09-17T16:53:19;14.00;76.20
42965;DHT22;28604;51.204;22.552;2022-09-17T16:55:45;14.00;75.80
42965;DHT22;28604;51.204;22.552;2022-09-17T16:58:11;14.00;77.10
42965;DHT22;28604;51.204;22.552;2022-09-17T17:00:37;13.90;78.30
42965;DHT22;28604;51.204;22.552;2022-09-17T17:03:04;13.80;78.60
42965;DHT22;28604;51.204;22.552;2022-09-17T17:05:35;13.80;79.20
42965;DHT22;28604;51.204;22.552;2022-09-17T17:08:02;13.70;79.90
42965;DHT22;28604;51.204;22.552;2022-09-17T17:10:28;13.60;80.40
42965;DHT22;28604;51.204;22.552;2022-09-17T17:12:56;13.50;80.00
42965;DHT22;28604;51.204;22.552;2022-09-17T17:15:22;13.50;80.20
42965;DHT22;28604;51.204;22.552;2022-09-17T17:17:49;13.50;80.30
42965;DHT22;28604;51.204;22.552;2022-09-17T17:20:16;13.50;79.70
42965;DHT22;28604;51.204;22.552;2022-09-17T17:22:44;13.40;78.30
42965;DHT22;28604;51.204;22.552;2022-09-17T17:25:12;13.30;79.50
42965;DHT22;28604;51.204;22.552;2022-09-17T17:27:39;13.40;80.50
42965;DHT22;28604;51.204;22.552;2022-09-17T17:30:09;13.30;79.50
42965;DHT22;28604;51.204;22.552;2022-09-17T17:32:37;13.30;79.90
42965;DHT22;28604;51.204;22.552;2022-09-17T17:35:03;13.20;80.60
42965;DHT22;28604;51.204;22.552;2022-09-17T17:37:29;13.20;80.50
42965;DHT22;28604;51.204;22.552;2022-09-17T17:40:04;13.20;81.50
42965;DHT22;28604;51.204;22.552;2022-09-17T17:42:34;13.10;82.00
42965;DHT22;28604;51.204;22.552;2022-09-17T17:45:05;13.00;81.30
42965;DHT22;28604;51.204;22.552;2022-09-17T17:47:32;13.00;81.20
42965;DHT22;28604;51.204;22.552;2022-09-17T17:50:01;12.90;82.00
42965;DHT22;28604;51.204;22.552;2022-09-17T17:52:28;12.90;82.10
42965;DHT22;28604;51.204;22.552;2022-09-17T17:54:54;12.90;81.80
42965;DHT22;28604;51.204;22.552;2022-09-17T17:57:20;12.80;81.00
42965;DHT22;28604;51.204;22.552;2022-09-17T17:59:47;12.80;79.70
42965;DHT22;28604;51.204;22.552;2022-09-17T18:02:13;12.80;79.70
42965;DHT22;28604;51.204;22.552;2022-09-17T18:04:44;12.80;79.60
42965;DHT22;28604;51.204;22.552;2022-09-17T18:07:10;12.80;79.00
42965;DHT22;28604;51.204;22.552;2022-09-17T18:12:21;12.70;78.50
42965;DHT22;28604;51.204;22.552;2022-09-17T18:14:48;12.60;78.60
42965;DHT22;28604;51.204;22.552;2022-09-17T18:17:14;12.50;77.90
42965;DHT22;28604;51.204;22.552;2022-09-17T18:19:40;12.50;77.60
42965;DHT22;28604;51.204;22.552;2022-09-17T18:22:07;12.50;78.00
42965;DHT22;28604;51.204;22.552;2022-09-17T18:24:33;12.50;77.70
42965;DHT22;28604;51.204;22.552;2022-09-17T18:26:59;12.50;77.30
42965;DHT22;28604;51.204;22.552;2022-09-17T18:29:26;12.40;77.30
42965;DHT22;28604;51.204;22.552;2022-09-17T18:31:53;12.40;78.10
42965;DHT22;28604;51.204;22.552;2022-09-17T18:34:21;12.30;77.00
42965;DHT22;28604;51.204;22.552;2022-09-17T18:36:48;12.30;76.60
42965;DHT22;28604;51.204;22.552;2022-09-17T18:39:16;12.30;77.00
42965;DHT22;28604;51.204;22.552;2022-09-17T18:41:43;12.20;77.40
42965;DHT22;28604;51.204;22.552;2022-09-17T18:44:10;12.20;76.90
42965;DHT22;28604;51.204;22.552;2022-09-17T18:46:37;12.20;76.70
42965;DHT22;28604;51.204;22.552;2022-09-17T18:49:05;12.10;76.30
42965;DHT22;28604;51.204;22.552;2022-09-17T18:51:32;12.10;76.80
42965;DHT22;28604;51.204;22.552;2022-09-17T18:53:59;12.10;77.10
42965;DHT22;28604;51.204;22.552;2022-09-17T18:56:29;12.10;76.80
42965;DHT22;28604;51.204;22.552;2022-09-17T18:58:57;12.00;76.60
42965;DHT22;28604;51.204;22.552;2022-09-17T19:01:26;12.00;76.70
42965;DHT22;28604;51.204;22.552;2022-09-17T19:03:55;12.00;76.60
42965;DHT22;28604;51.204;22.552;2022-09-17T19:06:22;11.90;76.50